sensor_id;sensor_type;location;lat;lon;timestamp;pressure;altitude;pressure_sealevel;temperature;humidity
69035;BME280;56091;55.756;37.412;2023-05-19T00:02:09;99647.34;;;14.50;79.07
69035;BME280;56091;55.756;37.412;2023-05-19T00:07:10;99650.59;;;14.52;79.06
69035;BME280;56091;55.756;37.412;2023-05-19T00:12:12;99664.41;;;14.45;79.36
69035;BME280;56091;55.756;37.412;2023-05-19T00:17:13;99657.59;;;14.17;80.11
69035;BME280;56091;55.756;37.412;2023-05-19T00:22:16;99652.47;;;14.20;79.81
69035;BME280;56091;55.756;37.412;2023-05-19T00:27:17;99663.59;;;14.29;79.41
69035;BME280;56091;55.756;37.412;2023-05-19T00:32:17;99666.84;;;14.41;78.90
69035;BME280;56091;55.756;37.412;2023-05-19T00:37:18;99669.31;;;14.48;77.90
69035;BME280;56091;55.756;37.412;2023-05-19T00:42:20;99676.09;;;14.40;77.60
69035;BME280;56091;55.756;37.412;2023-05-19T00:47:23;99673.66;;;14.39;77.04
69035;BME280;56091;55.756;37.412;2023-05-19T00:52:25;99679.91;;;14.50;76.12
69035;BME280;56091;55.756;37.412;2023-05-19T00:57:26;99668.19;;;14.18;76.49
69035;BME280;56091;55.756;37.412;2023-05-19T01:02:27;99687.72;;;14.15;76.86
69035;BME280;56091;55.756;37.412;2023-05-19T01:07:32;99691.44;;;13.83;77.36
69035;BME280;56091;55.756;37.412;2023-05-19T01:12:33;99681.31;;;13.58;78.85
69035;BME280;56091;55.756;37.412;2023-05-19T01:17:47;99688.00;;;13.40;79.00
69035;BME280;56091;55.756;37.412;2023-05-19T01:33:52;99707.53;;;13.42;78.71
69035;BME280;56091;55.756;37.412;2023-05-19T01:38:57;99715.78;;;13.25;78.94
69035;BME280;56091;55.756;37.412;2023-05-19T01:43:59;99725.16;;;12.70;81.04
69035;BME280;56091;55.756;37.412;2023-05-19T01:49:00;99727.63;;;12.44;79.04
69035;BME280;56091;55.756;37.412;2023-05-19T01:54:02;99735.19;;;12.15;71.37
69035;BME280;56091;55.756;37.412;2023-05-19T01:59:22;99747.34;;;11.90;69.98
69035;BME280;56091;55.756;37.412;2023-05-19T02:04:35;99744.91;;;11.72;67.32
69035;BME280;56091;55.756;37.412;2023-05-19T02:09:57;99746.50;;;11.29;67.87
69035;BME280;56091;55.756;37.412;2023-05-19T02:20:14;99737.72;;;11.61;68.78
69035;BME280;56091;55.756;37.412;2023-05-19T02:25:15;99738.88;;;11.87;68.90
69035;BME280;56091;55.756;37.412;2023-05-19T02:30:15;99740.03;;;11.91;68.43
69035;BME280;56091;55.756;37.412;2023-05-19T02:35:20;99758.38;;;12.11;67.20
69035;BME280;56091;55.756;37.412;2023-05-19T02:40:21;99758.56;;;12.26;66.58
69035;BME280;56091;55.756;37.412;2023-05-19T02:45:22;99761.44;;;12.20;66.50
69035;BME280;56091;55.756;37.412;2023-05-19T02:50:23;99757.97;;;11.97;68.18
69035;BME280;56091;55.756;37.412;2023-05-19T02:55:24;99763.88;;;12.16;67.32
69035;BME280;56091;55.756;37.412;2023-05-19T03:00:25;99766.22;;;12.35;66.90
69035;BME280;56091;55.756;37.412;2023-05-19T03:05:25;99762.22;;;12.15;67.19
69035;BME280;56091;55.756;37.412;2023-05-19T03:10:26;99764.34;;;12.13;67.50
69035;BME280;56091;55.756;37.412;2023-05-19T03:15:27;99765.78;;;11.77;69.28
69035;BME280;56091;55.756;37.412;2023-05-19T03:20:28;99767.38;;;11.72;70.20
69035;BME280;56091;55.756;37.412;2023-05-19T03:25:35;99789.16;;;11.66;71.39
69035;BME280;56091;55.756;37.412;2023-05-19T03:30:36;99789.50;;;11.52;72.62
69035;BME280;56091;55.756;37.412;2023-05-19T03:35:44;99787.88;;;11.51;73.08
69035;BME280;56091;55.756;37.412;2023-05-19T03:40:45;99795.94;;;11.12;73.87
69035;BME280;56091;55.756;37.412;2023-05-19T03:45:46;99778.09;;;11.11;75.39
69035;BME280;56091;55.756;37.412;2023-05-19T03:51:19;99807.88;;;11.33;75.26
69035;BME280;56091;55.756;37.412;2023-05-19T03:56:24;99797.16;;;11.22;76.22
69035;BME280;56091;55.756;37.412;2023-05-19T04:01:27;99807.94;;;11.39;75.90
69035;BME280;56091;55.756;37.412;2023-05-19T04:06:28;99809.63;;;11.62;75.66
69035;BME280;56091;55.756;37.412;2023-05-19T04:11:28;99809.97;;;11.65;76.17
69035;BME280;56091;55.756;37.412;2023-05-19T04:16:38;99813.31;;;11.72;75.45
69035;BME280;56091;55.756;37.412;2023-05-19T04:21:38;99822.66;;;11.87;76.46
69035;BME280;56091;55.756;37.412;2023-05-19T04:26:40;99812.91;;;11.64;76.77
69035;BME280;56091;55.756;37.412;2023-05-19T04:31:46;99828.53;;;11.62;77.27
69035;BME280;56091;55.756;37.412;2023-05-19T04:36:47;99820.75;;;11.65;77.75
69035;BME280;56091;55.756;37.412;2023-05-19T04:41:55;99823.31;;;11.38;77.56
69035;BME280;56091;55.756;37.412;2023-05-19T04:46:57;99823.94;;;11.62;77.99
69035;BME280;56091;55.756;37.412;2023-05-19T04:52:00;99824.41;;;11.93;77.32
69035;BME280;56091;55.756;37.412;2023-05-19T04:57:03;99824.31;;;11.88;75.83
69035;BME280;56091;55.756;37.412;2023-05-19T05:02:07;99821.19;;;11.96;74.95
69035;BME280;56091;55.756;37.412;2023-05-19T05:07:10;99828.56;;;12.23;75.52
69035;BME280;56091;55.756;37.412;2023-05-19T05:12:18;99830.69;;;12.21;74.49
69035;BME280;56091;55.756;37.412;2023-05-19T05:17:21;99831.19;;;12.18;73.58
69035;BME280;56091;55.756;37.412;2023-05-19T05:22:24;99831.84;;;12.03;72.99
69035;BME280;56091;55.756;37.412;2023-05-19T05:27:25;99840.00;;;12.08;73.80
69035;BME280;56091;55.756;37.412;2023-05-19T05:32:27;99841.56;;;12.04;73.75
69035;BME280;56091;55.756;37.412;2023-05-19T05:37:29;99844.53;;;12.02;74.24
69035;BME280;56091;55.756;37.412;2023-05-19T05:42:31;99852.66;;;12.24;73.39
69035;BME280;56091;55.756;37.412;2023-05-19T05:47:32;99860.44;;;11.99;73.86
69035;BME280;56091;55.756;37.412;2023-05-19T05:52:35;99860.38;;;12.16;73.54
69035;BME280;56091;55.756;37.412;2023-05-19T05:57:37;99860.13;;;12.39;73.23
69035;BME280;56091;55.756;37.412;2023-05-19T06:02:43;99866.06;;;12.63;71.88
69035;BME280;56091;55.756;37.412;2023-05-19T06:07:44;99873.13;;;12.92;71.09
69035;BME280;56091;55.756;37.412;2023-05-19T06:12:48;99867.94;;;12.58;71.34
69035;BME280;56091;55.756;37.412;2023-05-19T06:17:52;99861.31;;;12.98;71.22
69035;BME280;56091;55.756;37.412;2023-05-19T06:22:54;99854.91;;;13.09;70.44
69035;BME280;56091;55.756;37.412;2023-05-19T06:27:57;99855.34;;;13.28;69.87
69035;BME280;56091;55.756;37.412;2023-05-19T06:32:58;99840.41;;;13.25;69.55
69035;BME280;56091;55.756;37.412;2023-05-19T06:38:00;99868.16;;;13.75;68.22
69035;BME280;56091;55.756;37.412;2023-05-19T06:43:01;99864.00;;;14.05;66.54
69035;BME280;56091;55.756;37.412;2023-05-19T06:48:22;99866.03;;;13.82;66.88
69035;BME280;56091;55.756;37.412;2023-05-19T06:53:22;99870.03;;;14.22;65.54
69035;BME280;56091;55.756;37.412;2023-05-19T06:58:26;99871.19;;;14.37;64.63
69035;BME280;56091;55.756;37.412;2023-05-19T07:03:27;99876.22;;;14.08;65.54
69035;BME280;56091;55.756;37.412;2023-05-19T07:08:30;99874.25;;;13.98;64.31
69035;BME280;56091;55.756;37.412;2023-05-19T07:13:35;99876.28;;;14.18;64.08
69035;BME280;56091;55.756;37.412;2023-05-19T07:18:36;99873.66;;;14.38;62.23
69035;BME280;56091;55.756;37.412;2023-05-19T07:23:37;99886.94;;;14.35;61.80
69035;BME280;56091;55.756;37.412;2023-05-19T07:28:40;99889.13;;;14.43;60.90
69035;BME280;56091;55.756;37.412;2023-05-19T07:33:45;99878.22;;;14.28;59.22
69035;BME280;56091;55.756;37.412;2023-05-19T07:38:46;99893.72;;;14.37;59.55
69035;BME280;56091;55.756;37.412;2023-05-19T07:43:47;99903.22;;;14.35;59.40
69035;BME280;56091;55.756;37.412;2023-05-19T07:48:48;99898.00;;;14.23;57.98
69035;BME280;56091;55.756;37.412;2023-05-19T07:53:49;99877.00;;;14.03;54.94
69035;BME280;56091;55.756;37.412;2023-05-19T07:58:50;99893.22;;;14.51;51.09
69035;BME280;56091;55.756;37.412;2023-05-19T08:03:51;99881.31;;;14.57;46.95
69035;BME280;56091;55.756;37.412;2023-05-19T08:08:52;99880.06;;;14.80;46.57
69035;BME280;56091;55.756;37.412;2023-05-19T08:13:53;99893.66;;;15.00;45.08
69035;BME280;56091;55.756;37.412;2023-05-19T08:18:54;99893.59;;;14.75;43.88
69035;BME280;56091;55.756;37.412;2023-05-19T08:23:55;99885.22;;;14.87;43.73
69035;BME280;56091;55.756;37.412;2023-05-19T08:28:56;99899.63;;;14.92;42.97
69035;BME280;56091;55.756;37.412;2023-05-19T08:33:57;99884.41;;;14.96;43.30
69035;BME280;56091;55.756;37.412;2023-05-19T08:38:58;99891.50;;;14.97;43.81
69035;BME280;56091;55.756;37.412;2023-05-19T08:43:59;99887.69;;;14.98;44.22
69035;BME280;56091;55.756;37.412;2023-05-19T08:49:08;99887.44;;;15.31;44.08
69035;BME280;56091;55.756;37.412;2023-05-19T08:54:16;99888.22;;;15.88;43.65
69035;BME280;56091;55.756;37.412;2023-05-19T08:59:18;99865.97;;;15.80;43.11
69035;BME280;56091;55.756;37.412;2023-05-19T09:04:19;99882.22;;;16.11;43.26
69035;BME280;56091;55.756;37.412;2023-05-19T09:09:20;99875.03;;;16.36;41.00
69035;BME280;56091;55.756;37.412;2023-05-19T09:14:21;99881.94;;;16.73;40.92
69035;BME280;56091;55.756;37.412;2023-05-19T09:19:27;99875.94;;;16.76;40.47
69035;BME280;56091;55.756;37.412;2023-05-19T09:24:31;99880.41;;;16.51;39.68
69035;BME280;56091;55.756;37.412;2023-05-19T09:29:33;99877.88;;;16.70;39.56
69035;BME280;56091;55.756;37.412;2023-05-19T09:34:39;99868.19;;;16.98;39.13
69035;BME280;56091;55.756;37.412;2023-05-19T09:39:43;99858.56;;;17.11;38.78
69035;BME280;56091;55.756;37.412;2023-05-19T09:44:48;99859.75;;;17.34;37.33
69035;BME280;56091;55.756;37.412;2023-05-19T09:49:51;99879.53;;;16.61;37.60
69035;BME280;56091;55.756;37.412;2023-05-19T09:54:52;99851.84;;;16.98;37.43
69035;BME280;56091;55.756;37.412;2023-05-19T09:59:54;99853.56;;;17.87;36.53
69035;BME280;56091;55.756;37.412;2023-05-19T10:04:56;99859.22;;;17.62;35.50
69035;BME280;56091;55.756;37.412;2023-05-19T10:09:58;99855.50;;;17.82;34.83
69035;BME280;56091;55.756;37.412;2023-05-19T10:14:59;99839.19;;;18.25;34.25
69035;BME280;56091;55.756;37.412;2023-05-19T10:20:01;99850.59;;;18.70;33.04
69035;BME280;56091;55.756;37.412;2023-05-19T10:25:05;99825.44;;;18.73;32.84
69035;BME280;56091;55.756;37.412;2023-05-19T10:30:12;99847.03;;;18.31;33.00
69035;BME280;56091;55.756;37.412;2023-05-19T10:40:50;99849.22;;;19.43;32.00
69035;BME280;56091;55.756;37.412;2023-05-19T10:45:56;99829.59;;;19.69;31.74
69035;BME280;56091;55.756;37.412;2023-05-19T10:50:57;99828.16;;;19.58;31.94
69035;BME280;56091;55.756;37.412;2023-05-19T10:56:00;99842.13;;;19.09;31.46
69035;BME280;56091;55.756;37.412;2023-05-19T11:01:19;99846.16;;;18.74;32.61
69035;BME280;56091;55.756;37.412;2023-05-19T11:06:28;99854.19;;;18.89;32.43
69035;BME280;56091;55.756;37.412;2023-05-19T11:16:55;99838.22;;;19.62;30.52
69035;BME280;56091;55.756;37.412;2023-05-19T11:22:07;99846.47;;;19.29;30.85
69035;BME280;56091;55.756;37.412;2023-05-19T11:27:30;99851.69;;;19.59;30.50
69035;BME280;56091;55.756;37.412;2023-05-19T11:32:33;99856.00;;;19.46;30.05
69035;BME280;56091;55.756;37.412;2023-05-19T11:37:34;99844.97;;;19.84;29.20
69035;BME280;56091;55.756;37.412;2023-05-19T11:42:36;99856.44;;;19.20;29.90
69035;BME280;56091;55.756;37.412;2023-05-19T11:47:37;99851.19;;;19.24;29.59
69035;BME280;56091;55.756;37.412;2023-05-19T11:52:44;99841.16;;;19.52;28.97
69035;BME280;56091;55.756;37.412;2023-05-19T12:03:07;99865.00;;;19.65;27.98
69035;BME280;56091;55.756;37.412;2023-05-19T12:08:09;99848.63;;;19.46;28.24
69035;BME280;56091;55.756;37.412;2023-05-19T12:13:13;99854.38;;;19.78;27.75
69035;BME280;56091;55.756;37.412;2023-05-19T12:18:14;99862.38;;;20.71;26.98
69035;BME280;56091;55.756;37.412;2023-05-19T12:23:15;99868.97;;;21.06;26.73
69035;BME280;56091;55.756;37.412;2023-05-19T12:28:18;99855.38;;;21.24;25.82
69035;BME280;56091;55.756;37.412;2023-05-19T12:33:19;99857.50;;;21.72;25.46
69035;BME280;56091;55.756;37.412;2023-05-19T12:38:21;99872.47;;;22.37;24.55
69035;BME280;56091;55.756;37.412;2023-05-19T12:43:23;99873.81;;;21.46;25.41
69035;BME280;56091;55.756;37.412;2023-05-19T12:48:24;99868.88;;;22.28;24.79
69035;BME280;56091;55.756;37.412;2023-05-19T12:53:25;99875.22;;;21.21;26.12
69035;BME280;56091;55.756;37.412;2023-05-19T12:58:27;99849.94;;;20.88;26.53
69035;BME280;56091;55.756;37.412;2023-05-19T13:03:28;99872.97;;;20.86;26.40
69035;BME280;56091;55.756;37.412;2023-05-19T13:08:29;99856.31;;;20.33;26.69
69035;BME280;56091;55.756;37.412;2023-05-19T13:13:30;99881.78;;;20.33;25.84
69035;BME280;56091;55.756;37.412;2023-05-19T13:18:31;99869.09;;;20.23;26.43
69035;BME280;56091;55.756;37.412;2023-05-19T13:23:34;99863.41;;;21.66;24.49
69035;BME280;56091;55.756;37.412;2023-05-19T13:28:35;99864.34;;;23.81;22.31
69035;BME280;56091;55.756;37.412;2023-05-19T13:33:36;99863.84;;;24.26;21.31
69035;BME280;56091;55.756;37.412;2023-05-19T13:38:36;99870.25;;;25.31;20.31
69035;BME280;56091;55.756;37.412;2023-05-19T13:43:37;99875.75;;;24.09;21.25
69035;BME280;56091;55.756;37.412;2023-05-19T13:48:38;99866.31;;;24.99;20.44
69035;BME280;56091;55.756;37.412;2023-05-19T13:53:39;99870.09;;;23.41;22.60
69035;BME280;56091;55.756;37.412;2023-05-19T13:58:40;99859.75;;;24.02;22.10
69035;BME280;56091;55.756;37.412;2023-05-19T14:03:41;99854.75;;;22.87;22.82
69035;BME280;56091;55.756;37.412;2023-05-19T14:08:42;99872.91;;;21.37;24.37
69035;BME280;56091;55.756;37.412;2023-05-19T14:13:49;99869.28;;;21.73;24.52
69035;BME280;56091;55.756;37.412;2023-05-19T14:18:51;99867.56;;;21.54;24.21
69035;BME280;56091;55.756;37.412;2023-05-19T14:23:52;99872.22;;;22.65;23.25
69035;BME280;56091;55.756;37.412;2023-05-19T14:28:53;99866.22;;;23.33;22.10
69035;BME280;56091;55.756;37.412;2023-05-19T14:33:56;99853.94;;;25.84;19.64
69035;BME280;56091;55.756;37.412;2023-05-19T14:38:57;99858.72;;;27.26;17.54
69035;BME280;56091;55.756;37.412;2023-05-19T14:43:58;99854.75;;;29.26;15.79
69035;BME280;56091;55.756;37.412;2023-05-19T14:48:58;99838.00;;;31.28;14.24
69035;BME280;56091;55.756;37.412;2023-05-19T14:54:00;99853.72;;;31.88;13.18
69035;BME280;56091;55.756;37.412;2023-05-19T14:59:01;99848.38;;;30.98;14.18
69035;BME280;56091;55.756;37.412;2023-05-19T15:04:03;99842.59;;;28.75;16.20
69035;BME280;56091;55.756;37.412;2023-05-19T15:09:04;99856.72;;;26.99;18.25
69035;BME280;56091;55.756;37.412;2023-05-19T15:14:05;99850.13;;;23.70;22.01
69035;BME280;56091;55.756;37.412;2023-05-19T15:19:06;99854.66;;;21.95;24.03
69035;BME280;56091;55.756;37.412;2023-05-19T15:24:10;99838.41;;;25.13;20.30
69035;BME280;56091;55.756;37.412;2023-05-19T15:29:11;99824.97;;;22.54;22.79
69035;BME280;56091;55.756;37.412;2023-05-19T15:34:12;99854.22;;;22.01;24.19
69035;BME280;56091;55.756;37.412;2023-05-19T15:39:15;99852.69;;;24.52;21.51
69035;BME280;56091;55.756;37.412;2023-05-19T15:44:19;99856.81;;;25.88;20.10
69035;BME280;56091;55.756;37.412;2023-05-19T15:49:20;99858.13;;;26.27;19.41
69035;BME280;56091;55.756;37.412;2023-05-19T15:54:21;99859.84;;;24.95;20.70
69035;BME280;56091;55.756;37.412;2023-05-19T15:59:21;99862.66;;;22.63;23.54
69035;BME280;56091;55.756;37.412;2023-05-19T16:04:22;99869.31;;;21.50;25.45
69035;BME280;56091;55.756;37.412;2023-05-19T16:09:24;99877.56;;;20.91;26.16
69035;BME280;56091;55.756;37.412;2023-05-19T16:14:24;99884.50;;;19.92;27.42
69035;BME280;56091;55.756;37.412;2023-05-19T16:19:28;99867.63;;;19.05;29.29
69035;BME280;56091;55.756;37.412;2023-05-19T16:24:29;99889.53;;;18.38;30.18
69035;BME280;56091;55.756;37.412;2023-05-19T16:29:30;99904.91;;;17.75;32.06
69035;BME280;56091;55.756;37.412;2023-05-19T16:34:31;99897.97;;;17.24;33.32
69035;BME280;56091;55.756;37.412;2023-05-19T16:39:34;99887.88;;;16.90;33.67
69035;BME280;56091;55.756;37.412;2023-05-19T16:44:36;99900.28;;;16.57;35.17
69035;BME280;56091;55.756;37.412;2023-05-19T16:49:37;99913.16;;;16.36;35.75
69035;BME280;56091;55.756;37.412;2023-05-19T16:54:42;99908.63;;;16.06;36.60
69035;BME280;56091;55.756;37.412;2023-05-19T16:59:46;99914.91;;;15.65;37.31
69035;BME280;56091;55.756;37.412;2023-05-19T17:04:48;99915.47;;;15.52;38.07
69035;BME280;56091;55.756;37.412;2023-05-19T17:09:49;99933.94;;;15.29;38.93
69035;BME280;56091;55.756;37.412;2023-05-19T17:14:50;99856.13;;;14.67;40.00
69035;BME280;56091;55.756;37.412;2023-05-19T17:19:51;99944.97;;;14.87;40.83
69035;BME280;56091;55.756;37.412;2023-05-19T17:24:52;99947.88;;;14.70;41.65
69035;BME280;56091;55.756;37.412;2023-05-19T17:29:53;99943.72;;;14.52;41.71
69035;BME280;56091;55.756;37.412;2023-05-19T17:34:58;99956.69;;;14.34;42.50
69035;BME280;56091;55.756;37.412;2023-05-19T17:39:59;99954.44;;;14.26;42.80
69035;BME280;56091;55.756;37.412;2023-05-19T17:44:59;99951.97;;;14.19;43.11
69035;BME280;56091;55.756;37.412;2023-05-19T17:50:00;99970.88;;;14.09;43.43
69035;BME280;56091;55.756;37.412;2023-05-19T17:55:03;99958.28;;;13.88;43.85
69035;BME280;56091;55.756;37.412;2023-05-19T18:00:06;99948.50;;;13.54;44.35
69035;BME280;56091;55.756;37.412;2023-05-19T18:05:08;99975.41;;;13.61;44.57
69035;BME280;56091;55.756;37.412;2023-05-19T18:10:14;99967.69;;;13.47;44.82
69035;BME280;56091;55.756;37.412;2023-05-19T18:15:16;99982.88;;;13.48;45.24
69035;BME280;56091;55.756;37.412;2023-05-19T18:20:17;99994.91;;;13.31;45.37
69035;BME280;56091;55.756;37.412;2023-05-19T18:25:18;99990.72;;;13.23;45.72
69035;BME280;56091;55.756;37.412;2023-05-19T18:30:21;99994.97;;;13.14;45.89
69035;BME280;56091;55.756;37.412;2023-05-19T18:35:24;99992.66;;;13.00;46.18
69035;BME280;56091;55.756;37.412;2023-05-19T18:40:25;99993.09;;;12.92;46.52
69035;BME280;56091;55.756;37.412;2023-05-19T18:45:25;99991.66;;;12.84;46.68
69035;BME280;56091;55.756;37.412;2023-05-19T18:50:26;100004.59;;;12.82;46.97
69035;BME280;56091;55.756;37.412;2023-05-19T18:55:28;100009.16;;;12.77;47.30
69035;BME280;56091;55.756;37.412;2023-05-19T19:00:29;99996.25;;;12.62;47.83
69035;BME280;56091;55.756;37.412;2023-05-19T19:05:30;100015.94;;;12.57;48.33
69035;BME280;56091;55.756;37.412;2023-05-19T19:10:31;100017.00;;;12.56;48.46
69035;BME280;56091;55.756;37.412;2023-05-19T19:15:33;100014.25;;;12.34;49.06
69035;BME280;56091;55.756;37.412;2023-05-19T19:20:34;100014.78;;;12.14;49.50
69035;BME280;56091;55.756;37.412;2023-05-19T19:25:35;100008.22;;;12.10;49.91
69035;BME280;56091;55.756;37.412;2023-05-19T19:30:36;100017.91;;;12.06;50.26
69035;BME280;56091;55.756;37.412;2023-05-19T19:35:37;100019.63;;;11.95;50.76
69035;BME280;56091;55.756;37.412;2023-05-19T19:40:38;100012.81;;;11.93;50.82
69035;BME280;56091;55.756;37.412;2023-05-19T19:45:39;99911.03;;;11.19;50.79
69035;BME280;56091;55.756;37.412;2023-05-19T19:50:41;100023.44;;;11.82;51.38
69035;BME280;56091;55.756;37.412;2023-05-19T19:55:41;99983.28;;;11.40;51.26
69035;BME280;56091;55.756;37.412;2023-05-19T20:00:43;100042.69;;;11.69;51.34
69035;BME280;56091;55.756;37.412;2023-05-19T20:05:47;100038.97;;;11.58;51.69
69035;BME280;56091;55.756;37.412;2023-05-19T20:10:48;100039.03;;;11.46;51.87
69035;BME280;56091;55.756;37.412;2023-05-19T20:15:48;99953.88;;;10.98;51.74
69035;BME280;56091;55.756;37.412;2023-05-19T20:20:50;100039.50;;;11.43;50.98
69035;BME280;56091;55.756;37.412;2023-05-19T20:25:51;100046.44;;;11.39;50.93
69035;BME280;56091;55.756;37.412;2023-05-19T20:30:52;100053.59;;;11.45;50.27
69035;BME280;56091;55.756;37.412;2023-05-19T20:35:53;99987.28;;;11.09;49.73
69035;BME280;56091;55.756;37.412;2023-05-19T20:40:53;100051.31;;;11.54;49.56
69035;BME280;56091;55.756;37.412;2023-05-19T20:45:54;100056.25;;;11.74;49.31
69035;BME280;56091;55.756;37.412;2023-05-19T20:50:55;100062.88;;;11.66;49.12
69035;BME280;56091;55.756;37.412;2023-05-19T20:55:56;100055.09;;;11.70;49.11
69035;BME280;56091;55.756;37.412;2023-05-19T21:00:57;100055.34;;;11.68;49.22
69035;BME280;56091;55.756;37.412;2023-05-19T21:05:58;100063.41;;;11.80;49.47
69035;BME280;56091;55.756;37.412;2023-05-19T21:11:00;100073.72;;;11.83;49.57
69035;BME280;56091;55.756;37.412;2023-05-19T21:16:00;100062.56;;;11.91;50.76
69035;BME280;56091;55.756;37.412;2023-05-19T21:21:02;100068.13;;;12.02;49.75
69035;BME280;56091;55.756;37.412;2023-05-19T21:26:03;100064.41;;;11.91;50.46
69035;BME280;56091;55.756;37.412;2023-05-19T21:31:05;100066.88;;;11.93;50.60
69035;BME280;56091;55.756;37.412;2023-05-19T21:36:06;100062.31;;;11.64;51.36
69035;BME280;56091;55.756;37.412;2023-05-19T21:41:07;100070.72;;;11.51;51.83
69035;BME280;56091;55.756;37.412;2023-05-19T21:46:08;100076.34;;;11.49;52.22
69035;BME280;56091;55.756;37.412;2023-05-19T21:51:09;100065.59;;;11.38;52.53
69035;BME280;56091;55.756;37.412;2023-05-19T21:56:10;100061.22;;;11.48;52.69
69035;BME280;56091;55.756;37.412;2023-05-19T22:01:11;100058.63;;;11.53;52.47
69035;BME280;56091;55.756;37.412;2023-05-19T22:06:12;100059.19;;;11.56;52.06
69035;BME280;56091;55.756;37.412;2023-05-19T22:11:13;100046.00;;;11.30;52.81
69035;BME280;56091;55.756;37.412;2023-05-19T22:16:14;100056.81;;;11.30;53.03
69035;BME280;56091;55.756;37.412;2023-05-19T22:21:15;100054.38;;;11.29;53.21
69035;BME280;56091;55.756;37.412;2023-05-19T22:26:16;100061.28;;;11.25;53.21
69035;BME280;56091;55.756;37.412;2023-05-19T22:31:17;100046.50;;;10.87;53.61
69035;BME280;56091;55.756;37.412;2023-05-19T22:36:18;100048.25;;;10.93;53.77
69035;BME280;56091;55.756;37.412;2023-05-19T22:41:18;100058.22;;;11.04;53.48
69035;BME280;56091;55.756;37.412;2023-05-19T22:46:19;100049.19;;;10.99;53.67
69035;BME280;56091;55.756;37.412;2023-05-19T22:51:20;100054.66;;;11.04;53.46
69035;BME280;56091;55.756;37.412;2023-05-19T22:56:20;100058.22;;;11.04;53.44
69035;BME280;56091;55.756;37.412;2023-05-19T23:01:22;100054.19;;;11.07;53.31
69035;BME280;56091;55.756;37.412;2023-05-19T23:06:22;100045.28;;;11.06;53.44
69035;BME280;56091;55.756;37.412;2023-05-19T23:11:23;100048.75;;;11.19;52.84
69035;BME280;56091;55.756;37.412;2023-05-19T23:16:24;100019.72;;;10.97;52.40
69035;BME280;56091;55.756;37.412;2023-05-19T23:21:25;100042.34;;;11.08;52.67
69035;BME280;56091;55.756;37.412;2023-05-19T23:26:26;100051.38;;;11.02;52.38
69035;BME280;56091;55.756;37.412;2023-05-19T23:31:27;100013.00;;;10.59;53.29
69035;BME280;56091;55.756;37.412;2023-05-19T23:36:27;100046.50;;;10.87;52.85
69035;BME280;56091;55.756;37.412;2023-05-19T23:41:28;100033.72;;;10.82;52.23
69035;BME280;56091;55.756;37.412;2023-05-19T23:46:29;100031.47;;;10.91;52.24
69035;BME280;56091;55.756;37.412;2023-05-19T23:51:30;100033.25;;;10.73;51.34
69035;BME280;56091;55.756;37.412;2023-05-19T23:56:33;100022.72;;;10.72;50.87
